createdAt,value
2022-11-17T00:00:44.610Z,0.30
2022-11-17T00:03:15.881Z,0.43
2022-11-17T00:05:47.294Z,0.40
2022-11-17T00:08:16.275Z,0.40
2022-11-17T00:10:44.524Z,0.40
2022-11-17T00:13:32.790Z,0.50
2022-11-17T00:16:01.132Z,0.50
2022-11-17T00:18:47.291Z,0.60
2022-11-17T00:21:21.807Z,0.45
2022-11-17T00:23:50.932Z,0.77
2022-11-17T00:26:22.073Z,0.60
2022-11-17T00:28:57.899Z,0.63
2022-11-17T00:31:45.354Z,0.68
2022-11-17T00:34:17.685Z,0.60
2022-11-17T00:36:48.132Z,1.10
2022-11-17T00:39:18.033Z,1.33
2022-11-17T00:41:46.569Z,1.23
2022-11-17T00:44:35.461Z,0.90
2022-11-17T00:47:11.997Z,0.80
2022-11-17T00:49:40.750Z,0.85
2022-11-17T01:00:21.780Z,1.08
2022-11-17T01:03:17.851Z,1.48
2022-11-17T01:06:09.614Z,1.13
2022-11-17T01:08:51.256Z,1.73
2022-11-17T01:11:28.403Z,1.50
2022-11-17T01:14:51.124Z,1.08
2022-11-17T01:17:52.853Z,1.63
2022-11-17T01:20:30.118Z,1.80
2022-11-17T01:23:04.853Z,1.25
2022-11-17T01:25:43.985Z,2.05
2022-11-17T01:28:41.888Z,1.55
2022-11-17T01:31:18.229Z,2.10
2022-11-17T01:34:11.347Z,1.88
2022-11-17T01:37:08.861Z,1.75
2022-11-17T01:39:44.556Z,2.60
2022-11-17T01:42:37.069Z,1.60
2022-11-17T01:45:07.496Z,1.77
2022-11-17T01:47:52.722Z,1.50
2022-11-17T01:53:40.502Z,1.73
2022-11-17T01:56:30.603Z,2.25
2022-11-17T01:59:12.866Z,2.08
2022-11-17T02:01:57.495Z,2.10
2022-11-17T02:04:36.658Z,2.28
2022-11-17T02:07:29.057Z,1.60
2022-11-17T02:10:00.453Z,1.98
2022-11-17T02:12:40.738Z,2.17
2022-11-17T02:15:36.105Z,1.77
2022-11-17T04:08:04.302Z,2.15
2022-11-17T04:10:52.786Z,1.83
2022-11-17T04:13:38.572Z,1.85
2022-11-17T04:18:39.644Z,1.50
2022-11-17T04:21:13.455Z,1.73
2022-11-17T04:23:43.444Z,1.58
2022-11-17T04:26:29.848Z,2.30
2022-11-17T04:28:57.947Z,1.88
2022-11-17T04:31:28.013Z,1.00
2022-11-17T04:33:59.618Z,1.70
2022-11-17T04:36:29.666Z,1.30
2022-11-17T04:39:09.931Z,1.55
2022-11-17T04:42:02.490Z,1.67
2022-11-17T04:44:33.063Z,0.80
2022-11-17T04:47:12.246Z,1.38
2022-11-17T04:49:44.724Z,1.23
2022-11-17T04:52:17.823Z,1.13
2022-11-17T04:54:50.813Z,0.80
2022-11-17T04:57:19.467Z,0.95
2022-11-17T04:59:47.673Z,1.20
2022-11-17T05:02:18.235Z,2.15
2022-11-17T05:04:58.822Z,1.00
2022-11-17T05:07:29.467Z,1.30
2022-11-17T05:09:59.652Z,1.10
2022-11-17T05:12:45.664Z,0.88
2022-11-17T05:15:39.233Z,0.63
2022-11-17T05:18:11.544Z,0.50
2022-11-17T05:20:46.895Z,0.80
2022-11-17T05:26:02.550Z,1.67
2022-11-17T05:28:35.058Z,0.95
2022-11-17T05:31:03.789Z,0.50
2022-11-17T05:33:37.882Z,0.80
2022-11-17T05:36:07.335Z,0.70
2022-11-17T05:38:41.206Z,0.80
2022-11-17T05:41:11.194Z,1.10
2022-11-17T05:43:44.680Z,0.82
2022-11-17T05:46:15.314Z,1.02
2022-11-17T05:48:48.462Z,0.95
2022-11-17T05:51:17.168Z,1.13
2022-11-17T05:53:48.407Z,0.80
2022-11-17T05:56:46.522Z,0.80
2022-11-17T06:05:15.670Z,0.70
2022-11-17T06:07:48.679Z,0.80
2022-11-17T06:10:19.943Z,0.60
2022-11-17T06:12:52.417Z,0.60
2022-11-17T06:15:27.556Z,0.60
2022-11-17T06:20:52.299Z,0.60
2022-11-17T06:23:33.494Z,0.50
2022-11-17T06:26:06.589Z,0.50
2022-11-17T06:28:41.551Z,0.45
2022-11-17T06:31:13.973Z,0.95
2022-11-17T06:33:47.696Z,0.70
2022-11-17T06:36:21.294Z,0.57
2022-11-17T06:38:51.665Z,0.75
2022-11-17T06:41:20.558Z,0.60
2022-11-17T06:43:52.064Z,0.70
2022-11-17T06:46:21.389Z,0.55
2022-11-17T06:48:54.559Z,0.75
2022-11-17T06:51:26.044Z,0.77
2022-11-17T06:53:54.587Z,0.60
2022-11-17T06:56:24.196Z,0.60
2022-11-17T06:59:02.243Z,0.73
2022-11-17T07:01:30.886Z,0.80
2022-11-17T07:04:00.322Z,0.63
2022-11-17T07:06:29.034Z,0.75
2022-11-17T07:08:57.806Z,0.55
2022-11-17T07:14:42.026Z,0.40
2022-11-17T07:17:20.521Z,0.60
2022-11-17T07:19:53.705Z,1.05
2022-11-17T07:22:31.993Z,0.50
2022-11-17T07:24:59.955Z,0.60
2022-11-17T07:27:31.379Z,0.60
2022-11-17T07:30:07.722Z,0.52
2022-11-17T07:49:21.008Z,1.02
2022-11-17T07:52:04.627Z,0.60
2022-11-17T07:54:35.733Z,0.60
2022-11-17T07:57:05.027Z,0.73
2022-11-17T07:59:36.202Z,0.73
2022-11-17T08:02:39.361Z,0.60
2022-11-17T08:05:18.267Z,0.40
2022-11-17T08:07:57.081Z,0.82
2022-11-17T08:10:33.616Z,1.00
2022-11-17T08:21:34.058Z,0.75
2022-11-17T08:26:41.889Z,0.73
2022-11-17T08:29:17.226Z,0.50
2022-11-17T08:31:47.995Z,0.90
2022-11-17T08:34:20.124Z,0.60
2022-11-17T08:36:51.482Z,0.60
2022-11-17T08:39:23.310Z,0.60
2022-11-17T08:41:54.470Z,0.80
2022-11-17T08:44:22.914Z,1.10
2022-11-17T08:46:51.573Z,1.30
2022-11-17T08:49:20.881Z,1.90
2022-11-17T08:51:48.987Z,2.15
2022-11-17T08:54:18.167Z,1.45
2022-11-17T08:56:46.662Z,0.70
2022-11-17T08:59:15.589Z,0.80
2022-11-17T09:01:43.989Z,0.73
2022-11-17T09:04:12.019Z,0.68
2022-11-17T09:06:43.037Z,0.93
2022-11-17T09:09:11.531Z,0.68
2022-11-17T09:11:39.514Z,0.75
2022-11-17T09:14:08.398Z,1.42
2022-11-17T09:16:36.750Z,1.23
2022-11-17T09:19:04.702Z,0.68
2022-11-17T09:21:33.892Z,0.95
2022-11-17T09:24:03.667Z,0.60
2022-11-17T09:26:31.674Z,0.88
2022-11-17T09:29:02.321Z,0.77
2022-11-17T09:31:31.524Z,0.50
2022-11-17T09:34:03.807Z,0.75
2022-11-17T09:36:33.104Z,0.50
2022-11-17T09:39:01.219Z,1.15
2022-11-17T09:41:35.692Z,0.90
2022-11-17T09:44:16.909Z,0.60
2022-11-17T09:47:02.009Z,0.80
2022-11-17T09:49:41.896Z,1.77
2022-11-17T09:52:17.054Z,0.65
2022-11-17T09:54:50.906Z,0.93
2022-11-17T09:57:30.300Z,1.25
2022-11-17T10:00:06.223Z,0.82
2022-11-17T10:02:34.365Z,0.95
2022-11-17T10:05:02.529Z,0.85
2022-11-17T10:07:33.343Z,0.82
2022-11-17T10:10:03.502Z,1.10
2022-11-17T10:12:40.301Z,0.98
2022-11-17T10:15:22.610Z,0.77
2022-11-17T10:17:55.847Z,1.55
2022-11-17T10:20:24.265Z,0.82
2022-11-17T10:22:55.065Z,1.00
2022-11-17T10:25:38.382Z,0.93
2022-11-17T10:28:10.383Z,1.10
2022-11-17T10:30:38.579Z,0.90
2022-11-17T10:33:06.375Z,1.10
2022-11-17T10:35:36.289Z,0.98
2022-11-17T10:38:07.158Z,1.13
2022-11-17T10:40:49.914Z,0.95
2022-11-17T10:43:24.772Z,1.05
2022-11-17T10:45:55.687Z,0.88
2022-11-17T10:48:28.946Z,1.00
2022-11-17T10:50:58.677Z,1.35
2022-11-17T10:53:43.039Z,0.77
2022-11-17T10:56:15.726Z,0.90
2022-11-17T10:59:15.502Z,1.15
2022-11-17T11:01:45.560Z,0.95
2022-11-17T11:04:30.276Z,0.75
2022-11-17T11:07:13.186Z,1.00
2022-11-17T11:09:51.310Z,0.80
2022-11-17T11:12:26.124Z,0.82
2022-11-17T11:14:58.758Z,1.10
2022-11-17T11:17:29.197Z,0.90
2022-11-17T11:19:58.013Z,1.02
2022-11-17T11:22:36.626Z,0.98
2022-11-17T11:25:15.856Z,0.93
2022-11-17T11:27:57.803Z,0.90
2022-11-17T11:30:28.336Z,0.70
2022-11-17T11:33:08.207Z,1.45
2022-11-17T11:35:56.315Z,0.60
2022-11-17T11:38:45.043Z,0.68
2022-11-17T11:41:24.570Z,0.70
2022-11-17T11:44:07.568Z,0.90
2022-11-17T11:46:47.382Z,0.95
2022-11-17T11:49:24.047Z,0.80
2022-11-17T11:51:56.794Z,0.80
2022-11-17T11:54:33.923Z,0.55
2022-11-17T11:57:02.181Z,0.80
2022-11-17T11:59:42.131Z,1.38
2022-11-17T12:02:26.703Z,0.75
2022-11-17T12:05:05.669Z,0.90
2022-11-17T12:07:41.676Z,0.60
2022-11-17T12:10:18.994Z,0.70
2022-11-17T12:12:48.285Z,1.00
2022-11-17T12:15:37.088Z,0.60
2022-11-17T12:18:13.188Z,1.10
2022-11-17T12:20:55.406Z,1.13
2022-11-17T12:23:50.662Z,0.50
2022-11-17T12:26:25.178Z,0.45
2022-11-17T12:29:29.277Z,0.70
2022-11-17T12:31:59.115Z,0.90
2022-11-17T12:34:31.696Z,1.02
2022-11-17T12:37:23.295Z,0.57
2022-11-17T12:40:06.690Z,1.38
2022-11-17T12:42:36.534Z,1.70
2022-11-17T12:45:07.508Z,1.63
2022-11-17T12:47:37.605Z,1.95
2022-11-17T12:50:27.721Z,2.30
2022-11-17T12:53:07.671Z,1.92
2022-11-17T12:55:49.203Z,3.05
2022-11-17T12:58:24.675Z,2.53
2022-11-17T13:01:02.997Z,2.40
2022-11-17T13:03:44.103Z,0.88
2022-11-17T13:09:07.751Z,2.95
2022-11-17T13:11:36.249Z,1.15
2022-11-17T13:14:12.402Z,0.50
2022-11-17T13:16:46.176Z,1.00
2022-11-17T13:19:34.126Z,0.73
2022-11-17T13:22:07.595Z,0.68
2022-11-17T13:24:38.528Z,0.90
2022-11-17T13:27:08.808Z,0.57
2022-11-17T13:29:41.169Z,0.57
2022-11-17T13:32:14.868Z,0.70
2022-11-17T13:34:51.909Z,1.23
2022-11-17T13:37:24.108Z,0.80
2022-11-17T13:40:01.146Z,0.95
2022-11-17T13:42:33.055Z,0.77
2022-11-17T13:45:07.851Z,0.93
2022-11-17T13:47:45.812Z,1.10
2022-11-17T13:50:37.301Z,1.60
2022-11-17T13:53:27.197Z,1.33
2022-11-17T13:55:55.161Z,1.73
2022-11-17T13:58:30.766Z,1.30
2022-11-17T14:01:00.118Z,0.70
2022-11-17T14:03:39.917Z,0.90
2022-11-17T14:06:10.141Z,0.98
2022-11-17T14:08:41.801Z,0.60
2022-11-17T14:11:21.489Z,0.88
2022-11-17T14:13:52.929Z,0.65
2022-11-17T14:16:25.152Z,0.70
2022-11-17T14:19:02.999Z,1.15
2022-11-17T14:21:32.311Z,0.70
2022-11-17T14:24:08.312Z,0.60
2022-11-17T14:26:36.378Z,1.08
2022-11-17T14:29:04.281Z,0.70
2022-11-17T14:31:34.390Z,0.70
2022-11-17T14:34:02.591Z,0.63
2022-11-17T14:36:33.094Z,0.55
2022-11-17T14:39:02.281Z,0.73
2022-11-17T14:41:32.628Z,0.50
2022-11-17T14:44:00.727Z,0.50
2022-11-17T14:46:28.881Z,0.50
2022-11-17T14:48:57.203Z,0.65
2022-11-17T14:51:25.705Z,0.80
2022-11-17T14:53:54.256Z,0.80
2022-11-17T14:56:24.548Z,0.70
2022-11-17T14:58:57.237Z,0.60
2022-11-17T15:01:29.177Z,1.10
2022-11-17T15:03:58.621Z,1.02
2022-11-17T15:06:29.627Z,0.80
2022-11-17T15:08:59.927Z,1.10
2022-11-17T15:11:31.928Z,1.00
2022-11-17T15:14:05.351Z,1.02
2022-11-17T15:16:34.245Z,0.93
2022-11-17T15:19:03.922Z,0.80
2022-11-17T15:21:32.003Z,0.93
2022-11-17T15:24:00.247Z,0.80
2022-11-17T15:26:28.690Z,0.85
2022-11-17T15:28:57.948Z,1.08
2022-11-17T15:31:27.722Z,1.00
2022-11-17T15:33:56.087Z,1.05
2022-11-17T15:36:24.760Z,2.05
2022-11-17T15:38:53.439Z,1.00
2022-11-17T15:41:21.822Z,0.98
2022-11-17T15:43:49.922Z,0.80
2022-11-17T15:46:20.116Z,0.80
2022-11-17T15:48:52.540Z,1.00
2022-11-17T15:51:22.681Z,1.15
2022-11-17T15:53:52.514Z,1.20
2022-11-17T15:56:22.032Z,0.85
2022-11-17T15:58:55.922Z,0.93
2022-11-17T16:06:50.009Z,1.80
2022-11-17T16:12:51.383Z,1.73
2022-11-17T16:15:32.289Z,1.83
2022-11-17T16:18:00.680Z,2.08
2022-11-17T17:49:36.274Z,4.80
2022-11-17T17:52:08.492Z,1.70
2022-11-17T17:54:41.319Z,2.30
2022-11-17T17:57:12.742Z,2.97
2022-11-17T17:59:41.351Z,2.50
2022-11-17T18:02:15.370Z,2.60
2022-11-17T18:04:45.310Z,3.60
2022-11-17T18:07:19.838Z,3.28
2022-11-17T18:09:48.452Z,3.80
2022-11-17T18:12:17.715Z,4.75
2022-11-17T18:14:47.251Z,2.90
2022-11-17T18:17:19.046Z,1.58
2022-11-17T18:19:54.321Z,1.90
2022-11-17T18:22:22.867Z,2.53
2022-11-17T18:24:58.393Z,2.10
2022-11-17T18:27:27.398Z,3.10
2022-11-17T18:29:55.981Z,2.08
2022-11-17T18:32:24.492Z,2.70
2022-11-17T18:34:54.619Z,2.67
2022-11-17T18:37:22.773Z,2.85
2022-11-17T18:39:51.350Z,2.65
2022-11-17T18:42:19.879Z,2.10
2022-11-17T18:44:49.801Z,3.22
2022-11-17T18:47:20.449Z,2.38
2022-11-17T18:49:52.688Z,2.03
2022-11-17T18:52:24.883Z,1.85
2022-11-17T21:29:36.603Z,3.47
2022-11-17T21:32:08.010Z,3.80
2022-11-17T21:34:38.733Z,3.45
2022-11-17T21:37:12.316Z,5.53
